This is the latest recevied weather packets stored in our database for station/object K7KAR-2. If no packets are shown the sender has not sent any weather packets the latest 10 day(s).
| Time | Temp. | Humidity | Pressure | Rain* | Wind** | Luminosity | Snow |
|---|---|---|---|---|---|---|---|
| 1777547838 | -1.11° C | 56% | 1022.1 hPa | 0 mm | - | 0 W/m² | - |
| 1777547534 | -1.11° C | 57% | 1022.1 hPa | 0 mm | - | 0 W/m² | - |
| 1777547233 | -1.11° C | 57% | 1021.9 hPa | 0 mm | - | 0 W/m² | - |
| 1777546929 | -0.56° C | 56% | 1022 hPa | 0 mm | - | 0 W/m² | - |
| 1777546626 | -0.56° C | 55% | 1022.1 hPa | 0 mm | - | 0 W/m² | - |
| 1777546322 | -1.11° C | 56% | 1022.2 hPa | 0 mm | - | 0 W/m² | - |
| 1777546020 | -0.56° C | 55% | 1021.8 hPa | 0 mm | - | 0 W/m² | - |
| 1777545715 | -0.56° C | 53% | 1022 hPa | 0 mm | - | 0 W/m² | - |
| 1777545413 | 0° C | 54% | 1021.8 hPa | 0 mm | - | 0 W/m² | - |
| 1777545110 | -0.56° C | 54% | 1022 hPa | 0 mm | - | 0 W/m² | - |
| 1777544807 | -1.11° C | 57% | 1022.2 hPa | 0 mm | - | 0 W/m² | - |
| 1777544503 | -1.67° C | 58% | 1021.9 hPa | 0 mm | - | 0 W/m² | - |
| 1777544199 | -1.11° C | 57% | 1022 hPa | 0 mm | - | 0 W/m² | - |
| 1777543897 | -1.11° C | 56% | 1021.9 hPa | 0 mm | - | 0 W/m² | - |
| 1777543593 | -0.56° C | 55% | 1021.8 hPa | 0 mm | - | 0 W/m² | - |
| 1777543289 | -0.56° C | 54% | 1021.3 hPa | 0 mm | - | 0 W/m² | - |
| 1777542985 | -0.56° C | 54% | 1021.7 hPa | 0 mm | - | 0 W/m² | - |
| 1777542681 | 0° C | 53% | 1021.8 hPa | 0 mm | - | 0 W/m² | - |
| 1777542378 | 0° C | 53% | 1022.3 hPa | 0 mm | - | 0 W/m² | - |
| 1777542075 | 0° C | 51% | 1022 hPa | 0 mm | - | 0 W/m² | - |
| 1777541772 | 0° C | 52% | 1022.1 hPa | 0 mm | - | 0 W/m² | - |
| 1777541469 | 0.56° C | 50% | 1021.9 hPa | 0 mm | - | 0 W/m² | - |
| 1777541165 | 0° C | 51% | 1021.8 hPa | 0 mm | - | 0 W/m² | - |
| 1777540862 | 0.56° C | 49% | 1021.9 hPa | 0 mm | - | 0 W/m² | - |
| 1777540559 | 0° C | 51% | 1021.9 hPa | 0 mm | - | 0 W/m² | - |
* Rain latest hour (hover to see other rain measurements)
** Current wind speed in m/s (hover to see current wind gust speed)